createdAt,value
2023-03-26T16:30:26.037Z,4.90
2023-03-26T16:30:39.008Z,4.50
2023-03-26T16:30:47.584Z,4.00
2023-03-26T16:30:56.993Z,3.50
2023-03-26T16:31:23.284Z,3.50
2023-03-26T16:31:43.153Z,3.50
2023-03-26T16:31:49.296Z,3.40
2023-03-26T16:31:59.211Z,2.50
2023-03-26T16:32:10.927Z,2.90
2023-03-26T16:32:19.555Z,3.00
2023-03-26T16:32:29.587Z,2.60
2023-03-26T16:32:49.873Z,1.70
2023-03-26T16:33:00.983Z,1.80
2023-03-26T16:33:10.300Z,1.90
2023-03-26T16:33:20.270Z,1.70
2023-03-26T16:33:31.057Z,1.50
2023-03-26T16:33:40.457Z,1.40
2023-03-26T16:33:51.447Z,1.50
2023-03-26T16:34:10.862Z,1.50
2023-03-26T16:34:21.052Z,1.50
2023-03-26T16:34:31.077Z,1.30
2023-03-26T16:34:41.511Z,1.40
2023-03-26T16:34:52.055Z,1.50
2023-03-26T16:35:01.607Z,1.60
2023-03-26T16:35:11.610Z,1.70
2023-03-26T16:35:21.806Z,1.90
2023-03-26T16:35:31.888Z,1.90
2023-03-26T16:35:42.091Z,1.90
2023-03-26T16:35:52.558Z,1.90
2023-03-26T16:36:02.441Z,1.90
2023-03-26T16:36:12.437Z,1.70
2023-03-26T16:36:22.866Z,1.70
2023-03-26T16:36:32.607Z,1.60
2023-03-26T16:36:42.961Z,1.90
2023-03-26T16:36:52.873Z,2.10
2023-03-26T16:37:03.551Z,2.60
2023-03-26T16:37:13.202Z,2.60
2023-03-26T16:37:23.265Z,2.70
2023-03-26T16:37:33.514Z,3.10
2023-03-26T16:37:44.585Z,3.30
2023-03-26T16:37:53.669Z,3.00
2023-03-26T16:38:03.956Z,2.20
2023-03-26T16:38:13.886Z,1.70
2023-03-26T16:38:24.168Z,1.70
2023-03-26T16:38:35.151Z,1.70
2023-03-26T16:38:54.715Z,1.80
2023-03-26T16:39:04.680Z,1.80
2023-03-26T16:39:14.710Z,1.70
2023-03-26T16:39:24.868Z,1.70
2023-03-26T16:39:35.071Z,1.90
2023-03-26T16:39:45.137Z,2.60
2023-03-26T16:39:55.155Z,3.20
2023-03-26T16:40:05.400Z,56.40
2023-03-26T16:40:15.434Z,60.20
2023-03-26T16:40:25.775Z,64.10
2023-03-26T16:40:35.703Z,13.70
2023-03-26T16:40:45.967Z,14.70
2023-03-26T16:40:59.292Z,14.10
2023-03-26T16:41:06.057Z,12.90
2023-03-26T16:41:16.113Z,8.50
2023-03-26T16:41:26.608Z,8.40
2023-03-26T16:41:36.408Z,11.30
2023-03-26T16:41:47.168Z,16.50
2023-03-26T16:42:05.902Z,39.50
2023-03-26T16:42:12.327Z,65.60
2023-03-26T16:42:18.207Z,76.70
2023-03-26T16:42:28.379Z,42.20
2023-03-26T16:42:38.495Z,24.90
2023-03-26T16:42:48.983Z,9.10
2023-03-26T16:42:59.589Z,8.90
2023-03-26T16:43:19.082Z,17.10
2023-03-26T16:43:29.109Z,12.70
2023-03-26T16:43:39.076Z,9.30
2023-03-26T16:43:49.314Z,7.90
2023-03-26T16:43:59.466Z,7.30
2023-03-26T16:44:09.773Z,7.60
2023-03-26T16:44:19.612Z,7.60
2023-03-26T16:44:30.732Z,7.10
2023-03-26T16:44:40.085Z,7.10
2023-03-26T16:44:50.097Z,6.50
2023-03-26T16:45:00.167Z,6.00
2023-03-26T16:45:10.343Z,4.10
2023-03-26T16:45:20.400Z,3.90
2023-03-26T16:45:31.574Z,3.40
2023-03-26T16:45:40.725Z,3.60
2023-03-26T16:45:50.897Z,5.40
2023-03-26T16:46:01.037Z,6.80
2023-03-26T16:46:10.961Z,8.70
2023-03-26T16:46:21.078Z,11.50
2023-03-26T16:46:42.022Z,12.60
2023-03-26T16:46:51.457Z,9.00
2023-03-26T16:47:01.836Z,6.80
2023-03-26T16:47:11.839Z,6.60
2023-03-26T16:47:21.929Z,9.50
2023-03-26T16:47:32.035Z,10.50
2023-03-26T16:47:42.177Z,9.60
2023-03-26T16:47:52.382Z,5.80
2023-03-26T16:48:02.304Z,3.40
2023-03-26T16:48:12.515Z,3.60
2023-03-26T16:48:22.689Z,4.00
2023-03-26T16:48:32.706Z,4.50
2023-03-26T16:48:42.896Z,4.20
2023-03-26T16:48:52.973Z,4.30
2023-03-26T16:49:03.218Z,4.40
2023-03-26T16:49:13.262Z,5.40
2023-03-26T16:49:23.419Z,5.80
2023-03-26T16:49:33.574Z,5.60
2023-03-26T16:49:43.667Z,5.40
2023-03-26T16:50:07.745Z,4.70
2023-03-26T16:50:14.788Z,6.40
2023-03-26T16:50:21.822Z,9.30
2023-03-26T16:50:31.071Z,7.00
2023-03-26T16:50:41.301Z,3.00
2023-03-26T16:50:51.344Z,1.40
2023-03-26T16:51:01.742Z,1.40
2023-03-26T16:51:21.673Z,1.50
2023-03-26T16:51:31.861Z,1.70
2023-03-26T16:51:42.711Z,1.60
2023-03-26T16:51:52.155Z,1.60
2023-03-26T16:52:02.234Z,1.50
2023-03-26T16:52:12.941Z,1.50
2023-03-26T16:52:22.422Z,1.40
2023-03-26T16:52:32.646Z,1.30
2023-03-26T16:52:52.636Z,1.30
2023-03-26T16:53:03.694Z,1.20
2023-03-26T16:53:12.956Z,1.40
2023-03-26T16:53:23.127Z,1.40
2023-03-26T16:53:33.155Z,1.50
2023-03-26T16:53:43.304Z,1.50
2023-03-26T16:53:53.496Z,1.60
2023-03-26T16:54:03.834Z,1.80
2023-03-26T16:54:14.023Z,1.80
2023-03-26T16:54:24.146Z,1.80
2023-03-26T16:54:34.332Z,2.10
2023-03-26T16:54:44.313Z,2.40
2023-03-26T16:54:54.533Z,2.50
2023-03-26T16:55:04.612Z,2.20
2023-03-26T16:55:14.824Z,1.80
2023-03-26T16:55:24.837Z,1.70
2023-03-26T16:55:35.108Z,1.90
2023-03-26T16:55:45.116Z,9.50
2023-03-26T16:55:55.429Z,12.10
2023-03-26T16:56:05.432Z,12.70
2023-03-26T16:56:15.580Z,6.10
2023-03-26T16:56:26.610Z,4.80
2023-03-26T16:56:35.916Z,4.70
2023-03-26T16:56:45.937Z,4.40
2023-03-26T16:56:56.255Z,4.00
2023-03-26T16:57:06.269Z,3.80
2023-03-26T16:57:17.124Z,3.70
2023-03-26T16:57:26.693Z,3.40
2023-03-26T16:57:36.548Z,3.40
2023-03-26T16:57:46.631Z,3.40
2023-03-26T16:57:56.735Z,3.40
2023-03-26T16:58:06.841Z,3.20
2023-03-26T16:58:27.103Z,3.50
2023-03-26T16:58:38.220Z,3.90
2023-03-26T16:58:47.176Z,3.70
2023-03-26T16:58:57.371Z,3.70
2023-03-26T16:59:07.455Z,3.40
2023-03-26T16:59:17.623Z,3.60
2023-03-26T16:59:27.708Z,3.90
2023-03-26T17:00:04.901Z,3.60
2023-03-26T17:00:13.778Z,3.40
2023-03-26T17:00:19.923Z,3.90
2023-03-26T17:00:29.973Z,4.10
2023-03-26T17:00:40.270Z,4.00
2023-03-26T17:00:50.251Z,4.20
2023-03-26T17:01:00.380Z,4.60
2023-03-26T17:01:20.761Z,4.90
2023-03-26T17:01:31.154Z,4.10
2023-03-26T17:01:40.901Z,2.80
2023-03-26T17:01:51.661Z,2.60
2023-03-26T17:02:01.084Z,2.60
2023-03-26T17:02:11.152Z,2.90
2023-03-26T17:02:21.546Z,2.90
2023-03-26T17:02:31.632Z,2.90
2023-03-26T17:02:41.597Z,2.90
2023-03-26T17:02:51.839Z,2.90
2023-03-26T17:03:02.082Z,2.80
2023-03-26T17:03:11.916Z,3.00
2023-03-26T17:03:22.137Z,3.10
2023-03-26T17:03:32.729Z,3.20
2023-03-26T17:03:43.457Z,3.30
2023-03-26T17:03:52.709Z,4.50
2023-03-26T17:04:03.697Z,4.50
2023-03-26T17:04:12.819Z,4.60
2023-03-26T17:04:22.993Z,4.00
2023-03-26T17:04:33.232Z,3.90
2023-03-26T17:04:43.112Z,3.90
2023-03-26T17:04:53.334Z,3.60
2023-03-26T17:05:04.281Z,3.60
2023-03-26T17:05:13.481Z,3.70
2023-03-26T17:05:23.668Z,3.60
2023-03-26T17:05:33.760Z,3.80
2023-03-26T17:05:43.820Z,3.30
2023-03-26T17:05:54.054Z,4.60
2023-03-26T17:06:04.796Z,5.10
2023-03-26T17:06:14.376Z,5.60
2023-03-26T17:06:24.453Z,4.50
2023-03-26T17:06:34.614Z,4.50
2023-03-26T17:06:44.584Z,4.40
2023-03-26T17:06:55.813Z,4.60
2023-03-26T17:07:04.871Z,4.60
2023-03-26T17:07:14.970Z,5.20
2023-03-26T17:07:25.117Z,5.20
2023-03-26T17:07:35.212Z,4.90
2023-03-26T17:07:45.330Z,5.60
2023-03-26T17:08:05.552Z,7.00
2023-03-26T17:08:16.866Z,6.40
2023-03-26T17:08:35.919Z,5.10
2023-03-26T17:08:43.699Z,5.00
2023-03-26T17:08:50.678Z,4.60
2023-03-26T17:08:59.916Z,4.40
2023-03-26T17:09:11.399Z,4.30
2023-03-26T17:09:20.114Z,4.70
2023-03-26T17:09:30.356Z,5.20
2023-03-26T17:09:50.693Z,5.80
2023-03-26T17:10:01.772Z,5.40
2023-03-26T17:10:10.814Z,4.80
2023-03-26T17:10:21.029Z,4.30
2023-03-26T17:10:31.182Z,4.50
2023-03-26T17:10:41.292Z,4.70
2023-03-26T17:10:51.446Z,5.30
2023-03-26T17:11:12.600Z,4.80
2023-03-26T17:11:22.160Z,4.60
2023-03-26T17:11:31.962Z,5.20
2023-03-26T17:11:41.939Z,5.40
2023-03-26T17:11:52.014Z,5.50
2023-03-26T17:12:02.170Z,5.70
2023-03-26T17:12:23.042Z,6.30
2023-03-26T17:12:32.533Z,5.80
2023-03-26T17:12:42.795Z,4.60
2023-03-26T17:12:52.856Z,4.10
2023-03-26T17:13:02.878Z,3.90
2023-03-26T17:13:13.167Z,3.90
2023-03-26T17:13:23.258Z,3.80
2023-03-26T17:13:33.449Z,3.90
2023-03-26T17:13:43.562Z,3.90
2023-03-26T17:13:53.614Z,3.80
2023-03-26T17:14:04.603Z,3.80
2023-03-26T17:14:13.899Z,3.90
2023-03-26T17:14:23.995Z,3.90
2023-03-26T17:14:34.358Z,3.90
2023-03-26T17:14:44.329Z,4.30
2023-03-26T17:14:54.461Z,4.50
2023-03-26T17:15:14.536Z,4.30
2023-03-26T17:15:25.118Z,4.00
2023-03-26T17:15:34.943Z,3.60
2023-03-26T17:15:45.020Z,3.70
2023-03-26T17:15:55.186Z,3.80
2023-03-26T17:16:05.267Z,4.00
2023-03-26T17:16:15.410Z,4.60
2023-03-26T17:16:25.569Z,5.10
2023-03-26T17:16:35.736Z,5.80
2023-03-26T17:16:45.929Z,5.90
2023-03-26T17:16:55.952Z,5.50
2023-03-26T17:17:07.207Z,5.00
2023-03-26T17:17:16.242Z,5.30
2023-03-26T17:17:27.248Z,6.70
2023-03-26T17:17:36.423Z,7.40
2023-03-26T17:17:46.532Z,7.50
2023-03-26T17:17:56.672Z,7.30
2023-03-26T17:18:15.932Z,7.50
2023-03-26T17:18:27.285Z,7.40
2023-03-26T17:18:38.184Z,6.40
2023-03-26T17:18:47.401Z,6.20
2023-03-26T17:18:57.528Z,6.70
2023-03-26T17:19:07.452Z,8.10
2023-03-26T17:19:17.623Z,9.60
2023-03-26T17:19:27.671Z,9.80
2023-03-26T17:19:48.057Z,9.80
2023-03-26T17:19:58.062Z,11.40
2023-03-26T17:20:09.204Z,14.40
2023-03-26T17:20:18.216Z,16.70
2023-03-26T17:20:28.628Z,17.00
2023-03-26T17:20:38.510Z,15.30
2023-03-26T17:20:48.787Z,14.10
2023-03-26T17:20:58.913Z,13.60
2023-03-26T17:21:19.282Z,12.20
2023-03-26T17:21:29.231Z,11.70
2023-03-26T17:22:20.476Z,11.40
2023-03-26T17:22:26.592Z,9.70
2023-03-26T17:22:36.850Z,12.40
2023-03-26T17:22:46.989Z,12.20
2023-03-26T17:22:56.936Z,11.10
2023-03-26T17:23:07.142Z,9.50
2023-03-26T17:23:26.320Z,6.70
2023-03-26T17:23:39.621Z,6.00
2023-03-26T17:23:47.614Z,5.90
2023-03-26T17:23:57.985Z,5.70
2023-03-26T17:24:07.866Z,5.80
2023-03-26T17:24:21.092Z,5.90
2023-03-26T17:24:28.654Z,6.40
2023-03-26T17:24:38.627Z,5.80
2023-03-26T17:24:48.762Z,5.30
2023-03-26T17:24:58.894Z,8.40
2023-03-26T17:25:09.606Z,10.00
2023-03-26T17:25:29.599Z,8.20
2023-03-26T17:32:17.294Z,28.30
2023-03-26T17:32:28.698Z,27.20
2023-03-26T17:32:38.619Z,24.30
2023-03-26T17:32:48.610Z,23.30
2023-03-26T17:32:59.622Z,19.80
2023-03-26T17:33:08.840Z,16.40
2023-03-26T17:33:18.890Z,13.20
2023-03-26T17:33:29.107Z,11.80
2023-03-26T17:33:39.464Z,11.90
2023-03-26T17:33:49.498Z,12.50
2023-03-26T17:34:09.592Z,7.90
2023-03-26T17:34:20.709Z,4.80
2023-03-26T17:34:29.940Z,4.10
2023-03-26T17:34:40.027Z,4.00
2023-03-26T17:34:50.236Z,4.00
2023-03-26T17:35:00.303Z,3.90
2023-03-26T17:35:10.832Z,3.50
2023-03-26T17:35:30.552Z,4.90
2023-03-26T17:35:41.710Z,5.60
2023-03-26T17:35:50.790Z,5.60
2023-03-26T17:36:00.895Z,7.60
2023-03-26T17:36:11.321Z,10.80
2023-03-26T17:36:21.263Z,10.90
2023-03-26T17:36:32.199Z,7.70
2023-03-26T17:36:51.697Z,3.30
2023-03-26T17:37:02.760Z,3.30
2023-03-26T17:37:11.765Z,3.10
2023-03-26T17:37:21.945Z,3.30
2023-03-26T17:37:32.091Z,3.20
2023-03-26T17:37:42.122Z,3.60
2023-03-26T17:37:52.236Z,4.40
2023-03-26T17:38:12.563Z,5.20
2023-03-26T17:38:22.653Z,4.70
2023-03-26T17:38:33.745Z,4.50
2023-03-26T17:38:45.183Z,4.30
2023-03-26T17:38:53.205Z,4.20
2023-03-26T17:39:03.204Z,4.10
2023-03-26T17:39:13.364Z,4.10
2023-03-26T17:39:23.562Z,4.10
2023-03-26T17:39:33.713Z,4.30
2023-03-26T17:39:44.679Z,4.60
2023-03-26T17:39:53.838Z,4.90
2023-03-26T17:40:04.200Z,5.30
2023-03-26T17:40:14.740Z,5.90
2023-03-26T17:40:24.345Z,6.60
2023-03-26T17:40:34.447Z,6.80
2023-03-26T17:40:54.793Z,7.30
2023-03-26T17:41:04.592Z,7.70
2023-03-26T17:41:17.661Z,9.20
2023-03-26T17:41:24.861Z,11.00
2023-03-26T17:41:35.132Z,11.80
2023-03-26T17:41:45.185Z,10.50
2023-03-26T17:41:55.183Z,9.20
2023-03-26T17:42:05.377Z,8.60
2023-03-26T17:42:15.628Z,8.50
2023-03-26T17:42:26.216Z,7.80
2023-03-26T17:42:35.946Z,6.70
2023-03-26T17:42:46.030Z,5.10
2023-03-26T17:42:56.942Z,4.50
2023-03-26T17:43:06.207Z,4.70
2023-03-26T17:43:16.226Z,5.10
2023-03-26T17:43:26.348Z,5.80
